sensor_id;sensor_type;location;lat;lon;timestamp;P1;durP1;ratioP1;P2;durP2;ratioP2
18336;SDS011;9294;51.106;7.028;2023-07-09T00:01:07;4.22;;;3.92;;
18336;SDS011;9294;51.106;7.028;2023-07-09T00:03:36;4.18;;;3.88;;
18336;SDS011;9294;51.106;7.028;2023-07-09T00:06:07;3.97;;;3.78;;
18336;SDS011;9294;51.106;7.028;2023-07-09T00:08:34;4.00;;;3.80;;
18336;SDS011;9294;51.106;7.028;2023-07-09T00:11:01;3.90;;;3.70;;
18336;SDS011;9294;51.106;7.028;2023-07-09T00:13:28;4.43;;;4.18;;
18336;SDS011;9294;51.106;7.028;2023-07-09T00:15:57;4.75;;;4.45;;
18336;SDS011;9294;51.106;7.028;2023-07-09T00:18:25;4.00;;;3.78;;
18336;SDS011;9294;51.106;7.028;2023-07-09T00:20:53;4.07;;;3.78;;
18336;SDS011;9294;51.106;7.028;2023-07-09T00:23:21;4.43;;;4.13;;
18336;SDS011;9294;51.106;7.028;2023-07-09T00:25:48;4.30;;;4.00;;
18336;SDS011;9294;51.106;7.028;2023-07-09T00:28:16;4.28;;;3.90;;
18336;SDS011;9294;51.106;7.028;2023-07-09T00:30:43;4.47;;;4.07;;
18336;SDS011;9294;51.106;7.028;2023-07-09T00:33:11;4.45;;;4.15;;
18336;SDS011;9294;51.106;7.028;2023-07-09T00:35:39;6.32;;;4.35;;
18336;SDS011;9294;51.106;7.028;2023-07-09T00:38:08;4.07;;;3.88;;
18336;SDS011;9294;51.106;7.028;2023-07-09T00:40:44;3.80;;;3.60;;
18336;SDS011;9294;51.106;7.028;2023-07-09T00:43:13;3.83;;;3.63;;
18336;SDS011;9294;51.106;7.028;2023-07-09T00:45:41;4.18;;;3.88;;
18336;SDS011;9294;51.106;7.028;2023-07-09T00:48:09;3.97;;;3.78;;
18336;SDS011;9294;51.106;7.028;2023-07-09T00:50:39;3.85;;;3.65;;
18336;SDS011;9294;51.106;7.028;2023-07-09T00:53:11;3.58;;;3.38;;
18336;SDS011;9294;51.106;7.028;2023-07-09T00:55:45;4.50;;;4.20;;
18336;SDS011;9294;51.106;7.028;2023-07-09T00:58:13;3.65;;;3.47;;
18336;SDS011;9294;51.106;7.028;2023-07-09T01:00:43;3.97;;;3.78;;
18336;SDS011;9294;51.106;7.028;2023-07-09T01:03:14;3.88;;;3.67;;
18336;SDS011;9294;51.106;7.028;2023-07-09T01:05:42;4.00;;;3.80;;
18336;SDS011;9294;51.106;7.028;2023-07-09T01:08:09;3.83;;;3.63;;
18336;SDS011;9294;51.106;7.028;2023-07-09T01:10:37;4.10;;;3.90;;
18336;SDS011;9294;51.106;7.028;2023-07-09T01:13:07;3.83;;;3.63;;
18336;SDS011;9294;51.106;7.028;2023-07-09T01:15:34;3.97;;;3.67;;
18336;SDS011;9294;51.106;7.028;2023-07-09T01:18:02;4.28;;;4.07;;
18336;SDS011;9294;51.106;7.028;2023-07-09T01:20:30;3.60;;;3.40;;
18336;SDS011;9294;51.106;7.028;2023-07-09T01:22:59;3.72;;;3.53;;
18336;SDS011;9294;51.106;7.028;2023-07-09T01:25:27;3.70;;;3.50;;
18336;SDS011;9294;51.106;7.028;2023-07-09T01:27:54;3.78;;;3.58;;
18336;SDS011;9294;51.106;7.028;2023-07-09T01:30:23;4.18;;;3.90;;
18336;SDS011;9294;51.106;7.028;2023-07-09T01:32:51;4.57;;;4.28;;
18336;SDS011;9294;51.106;7.028;2023-07-09T01:35:22;3.88;;;3.58;;
18336;SDS011;9294;51.106;7.028;2023-07-09T01:37:51;4.10;;;3.70;;
18336;SDS011;9294;51.106;7.028;2023-07-09T01:40:20;4.22;;;3.97;;
18336;SDS011;9294;51.106;7.028;2023-07-09T01:42:48;4.03;;;3.83;;
18336;SDS011;9294;51.106;7.028;2023-07-09T01:45:16;3.88;;;3.67;;
18336;SDS011;9294;51.106;7.028;2023-07-09T01:47:45;3.97;;;3.78;;
18336;SDS011;9294;51.106;7.028;2023-07-09T01:50:12;3.75;;;3.55;;
18336;SDS011;9294;51.106;7.028;2023-07-09T01:52:41;3.67;;;3.47;;
18336;SDS011;9294;51.106;7.028;2023-07-09T01:55:09;4.40;;;4.15;;
18336;SDS011;9294;51.106;7.028;2023-07-09T01:57:38;4.10;;;3.80;;
18336;SDS011;9294;51.106;7.028;2023-07-09T02:00:06;4.15;;;3.85;;
18336;SDS011;9294;51.106;7.028;2023-07-09T02:02:35;4.70;;;4.40;;
18336;SDS011;9294;51.106;7.028;2023-07-09T02:05:04;3.85;;;3.55;;
18336;SDS011;9294;51.106;7.028;2023-07-09T02:07:31;4.50;;;4.10;;
18336;SDS011;9294;51.106;7.028;2023-07-09T02:09:58;3.65;;;3.35;;
18336;SDS011;9294;51.106;7.028;2023-07-09T02:12:25;4.10;;;3.80;;
18336;SDS011;9294;51.106;7.028;2023-07-09T02:14:53;3.20;;;3.10;;
18336;SDS011;9294;51.106;7.028;2023-07-09T02:17:20;3.55;;;3.30;;
18336;SDS011;9294;51.106;7.028;2023-07-09T02:19:47;4.38;;;4.07;;
18336;SDS011;9294;51.106;7.028;2023-07-09T02:22:15;3.75;;;3.55;;
18336;SDS011;9294;51.106;7.028;2023-07-09T02:24:42;3.88;;;3.63;;
18336;SDS011;9294;51.106;7.028;2023-07-09T02:27:09;3.65;;;3.45;;
18336;SDS011;9294;51.106;7.028;2023-07-09T02:29:37;3.47;;;3.28;;
18336;SDS011;9294;51.106;7.028;2023-07-09T02:32:06;3.67;;;3.47;;
18336;SDS011;9294;51.106;7.028;2023-07-09T02:34:33;4.00;;;3.80;;
18336;SDS011;9294;51.106;7.028;2023-07-09T02:37:01;3.97;;;3.78;;
18336;SDS011;9294;51.106;7.028;2023-07-09T02:39:28;4.40;;;4.10;;
18336;SDS011;9294;51.106;7.028;2023-07-09T02:41:55;3.95;;;3.75;;
18336;SDS011;9294;51.106;7.028;2023-07-09T02:44:22;4.45;;;4.15;;
18336;SDS011;9294;51.106;7.028;2023-07-09T02:46:49;3.97;;;3.78;;
18336;SDS011;9294;51.106;7.028;2023-07-09T02:49:17;4.03;;;3.80;;
18336;SDS011;9294;51.106;7.028;2023-07-09T02:51:44;4.03;;;3.75;;
18336;SDS011;9294;51.106;7.028;2023-07-09T02:54:11;3.97;;;3.78;;
18336;SDS011;9294;51.106;7.028;2023-07-09T02:56:38;3.90;;;3.70;;
18336;SDS011;9294;51.106;7.028;2023-07-09T02:59:05;3.70;;;3.40;;
18336;SDS011;9294;51.106;7.028;2023-07-09T03:01:33;4.38;;;4.07;;
18336;SDS011;9294;51.106;7.028;2023-07-09T03:04:01;4.10;;;3.80;;
18336;SDS011;9294;51.106;7.028;2023-07-09T03:06:30;3.45;;;3.25;;
18336;SDS011;9294;51.106;7.028;2023-07-09T03:08:58;3.95;;;3.75;;
18336;SDS011;9294;51.106;7.028;2023-07-09T03:11:27;4.10;;;3.80;;
18336;SDS011;9294;51.106;7.028;2023-07-09T03:13:54;3.55;;;3.38;;
18336;SDS011;9294;51.106;7.028;2023-07-09T03:16:22;4.35;;;4.05;;
18336;SDS011;9294;51.106;7.028;2023-07-09T03:18:49;3.75;;;3.55;;
18336;SDS011;9294;51.106;7.028;2023-07-09T03:21:16;3.85;;;3.65;;
18336;SDS011;9294;51.106;7.028;2023-07-09T03:23:44;4.05;;;3.85;;
18336;SDS011;9294;51.106;7.028;2023-07-09T03:26:11;3.83;;;3.63;;
18336;SDS011;9294;51.106;7.028;2023-07-09T03:28:40;3.63;;;3.42;;
18336;SDS011;9294;51.106;7.028;2023-07-09T03:31:07;3.40;;;3.20;;
18336;SDS011;9294;51.106;7.028;2023-07-09T03:33:34;4.00;;;3.70;;
18336;SDS011;9294;51.106;7.028;2023-07-09T03:36:01;4.18;;;3.90;;
18336;SDS011;9294;51.106;7.028;2023-07-09T03:38:29;3.92;;;3.72;;
18336;SDS011;9294;51.106;7.028;2023-07-09T03:40:58;3.67;;;3.47;;
18336;SDS011;9294;51.106;7.028;2023-07-09T03:43:25;4.57;;;4.28;;
18336;SDS011;9294;51.106;7.028;2023-07-09T03:45:52;3.90;;;3.60;;
18336;SDS011;9294;51.106;7.028;2023-07-09T03:48:19;4.15;;;3.85;;
18336;SDS011;9294;51.106;7.028;2023-07-09T03:50:47;3.70;;;3.50;;
18336;SDS011;9294;51.106;7.028;2023-07-09T03:53:14;4.30;;;4.00;;
18336;SDS011;9294;51.106;7.028;2023-07-09T03:55:42;3.88;;;3.67;;
18336;SDS011;9294;51.106;7.028;2023-07-09T03:58:12;3.33;;;3.20;;
18336;SDS011;9294;51.106;7.028;2023-07-09T04:00:39;4.03;;;3.72;;
18336;SDS011;9294;51.106;7.028;2023-07-09T04:03:06;3.92;;;3.60;;
18336;SDS011;9294;51.106;7.028;2023-07-09T04:05:35;3.90;;;3.65;;
18336;SDS011;9294;51.106;7.028;2023-07-09T04:08:02;4.28;;;3.97;;
18336;SDS011;9294;51.106;7.028;2023-07-09T04:10:29;4.15;;;3.88;;
18336;SDS011;9294;51.106;7.028;2023-07-09T04:12:56;3.85;;;3.65;;
18336;SDS011;9294;51.106;7.028;2023-07-09T04:15:25;4.38;;;4.07;;
18336;SDS011;9294;51.106;7.028;2023-07-09T04:17:52;4.18;;;3.97;;
18336;SDS011;9294;51.106;7.028;2023-07-09T04:20:19;3.53;;;3.33;;
18336;SDS011;9294;51.106;7.028;2023-07-09T04:22:47;3.50;;;3.30;;
18336;SDS011;9294;51.106;7.028;2023-07-09T04:25:14;3.83;;;3.63;;
18336;SDS011;9294;51.106;7.028;2023-07-09T04:27:42;3.67;;;3.47;;
18336;SDS011;9294;51.106;7.028;2023-07-09T04:30:09;4.47;;;4.18;;
18336;SDS011;9294;51.106;7.028;2023-07-09T04:32:38;4.35;;;4.15;;
18336;SDS011;9294;51.106;7.028;2023-07-09T04:35:05;4.07;;;3.78;;
18336;SDS011;9294;51.106;7.028;2023-07-09T04:37:32;3.80;;;3.60;;
18336;SDS011;9294;51.106;7.028;2023-07-09T04:40:00;4.50;;;4.20;;
18336;SDS011;9294;51.106;7.028;2023-07-09T04:42:27;3.75;;;3.50;;
18336;SDS011;9294;51.106;7.028;2023-07-09T04:44:54;4.20;;;3.90;;
18336;SDS011;9294;51.106;7.028;2023-07-09T04:47:21;4.38;;;4.18;;
18336;SDS011;9294;51.106;7.028;2023-07-09T04:49:50;4.20;;;4.00;;
18336;SDS011;9294;51.106;7.028;2023-07-09T04:52:17;4.00;;;3.80;;
18336;SDS011;9294;51.106;7.028;2023-07-09T04:54:44;4.35;;;4.05;;
18336;SDS011;9294;51.106;7.028;2023-07-09T04:57:11;4.03;;;3.80;;
18336;SDS011;9294;51.106;7.028;2023-07-09T04:59:38;4.15;;;3.85;;
18336;SDS011;9294;51.106;7.028;2023-07-09T05:02:06;4.68;;;4.38;;
18336;SDS011;9294;51.106;7.028;2023-07-09T05:04:33;3.60;;;3.40;;
18336;SDS011;9294;51.106;7.028;2023-07-09T05:07:02;4.30;;;4.05;;
18336;SDS011;9294;51.106;7.028;2023-07-09T05:09:29;3.72;;;3.50;;
18336;SDS011;9294;51.106;7.028;2023-07-09T05:11:56;3.75;;;3.55;;
18336;SDS011;9294;51.106;7.028;2023-07-09T05:14:23;4.45;;;4.15;;
18336;SDS011;9294;51.106;7.028;2023-07-09T05:16:50;4.10;;;3.83;;
18336;SDS011;9294;51.106;7.028;2023-07-09T05:19:18;4.10;;;3.85;;
18336;SDS011;9294;51.106;7.028;2023-07-09T05:21:45;4.72;;;4.40;;
18336;SDS011;9294;51.106;7.028;2023-07-09T05:24:13;4.40;;;4.10;;
18336;SDS011;9294;51.106;7.028;2023-07-09T05:26:40;4.00;;;3.80;;
18336;SDS011;9294;51.106;7.028;2023-07-09T05:29:07;4.07;;;3.88;;
18336;SDS011;9294;51.106;7.028;2023-07-09T05:31:35;4.07;;;3.78;;
18336;SDS011;9294;51.106;7.028;2023-07-09T05:34:02;3.45;;;3.25;;
18336;SDS011;9294;51.106;7.028;2023-07-09T05:36:29;5.15;;;4.75;;
18336;SDS011;9294;51.106;7.028;2023-07-09T05:38:56;4.63;;;4.20;;
18336;SDS011;9294;51.106;7.028;2023-07-09T05:41:25;4.60;;;4.30;;
18336;SDS011;9294;51.106;7.028;2023-07-09T05:43:52;3.95;;;3.72;;
18336;SDS011;9294;51.106;7.028;2023-07-09T05:46:21;3.70;;;3.50;;
18336;SDS011;9294;51.106;7.028;2023-07-09T05:48:48;4.18;;;3.97;;
18336;SDS011;9294;51.106;7.028;2023-07-09T05:51:16;3.85;;;3.55;;
18336;SDS011;9294;51.106;7.028;2023-07-09T05:53:43;4.30;;;4.00;;
18336;SDS011;9294;51.106;7.028;2023-07-09T05:56:10;4.00;;;3.70;;
18336;SDS011;9294;51.106;7.028;2023-07-09T05:58:38;5.03;;;4.32;;
18336;SDS011;9294;51.106;7.028;2023-07-09T06:01:05;7.45;;;3.60;;
18336;SDS011;9294;51.106;7.028;2023-07-09T06:03:32;4.10;;;3.67;;
18336;SDS011;9294;51.106;7.028;2023-07-09T06:05:59;3.58;;;3.35;;
18336;SDS011;9294;51.106;7.028;2023-07-09T06:08:26;5.47;;;3.60;;
18336;SDS011;9294;51.106;7.028;2023-07-09T06:10:55;3.90;;;3.60;;
18336;SDS011;9294;51.106;7.028;2023-07-09T06:13:22;5.13;;;3.92;;
18336;SDS011;9294;51.106;7.028;2023-07-09T06:15:51;4.20;;;3.90;;
18336;SDS011;9294;51.106;7.028;2023-07-09T06:18:18;4.28;;;3.97;;
18336;SDS011;9294;51.106;7.028;2023-07-09T06:20:47;3.92;;;3.63;;
18336;SDS011;9294;51.106;7.028;2023-07-09T06:23:14;4.05;;;3.85;;
18336;SDS011;9294;51.106;7.028;2023-07-09T06:25:42;4.15;;;3.85;;
18336;SDS011;9294;51.106;7.028;2023-07-09T06:28:12;4.30;;;4.00;;
18336;SDS011;9294;51.106;7.028;2023-07-09T06:30:39;4.22;;;3.92;;
18336;SDS011;9294;51.106;7.028;2023-07-09T06:33:07;4.32;;;4.03;;
18336;SDS011;9294;51.106;7.028;2023-07-09T06:35:34;4.15;;;3.85;;
18336;SDS011;9294;51.106;7.028;2023-07-09T06:38:02;4.63;;;4.22;;
18336;SDS011;9294;51.106;7.028;2023-07-09T06:40:29;4.13;;;3.92;;
18336;SDS011;9294;51.106;7.028;2023-07-09T06:42:56;4.30;;;3.92;;
18336;SDS011;9294;51.106;7.028;2023-07-09T06:45:23;3.88;;;3.67;;
18336;SDS011;9294;51.106;7.028;2023-07-09T06:47:50;4.47;;;4.18;;
18336;SDS011;9294;51.106;7.028;2023-07-09T06:50:19;4.65;;;4.25;;
18336;SDS011;9294;51.106;7.028;2023-07-09T06:52:46;4.28;;;3.95;;
18336;SDS011;9294;51.106;7.028;2023-07-09T06:55:13;6.75;;;4.57;;
18336;SDS011;9294;51.106;7.028;2023-07-09T06:57:40;4.28;;;4.07;;
18336;SDS011;9294;51.106;7.028;2023-07-09T07:00:07;4.60;;;4.22;;
18336;SDS011;9294;51.106;7.028;2023-07-09T07:02:34;4.93;;;4.63;;
18336;SDS011;9294;51.106;7.028;2023-07-09T07:05:01;8.50;;;4.60;;
18336;SDS011;9294;51.106;7.028;2023-07-09T07:07:30;5.40;;;4.45;;
18336;SDS011;9294;51.106;7.028;2023-07-09T07:09:57;5.25;;;4.78;;
18336;SDS011;9294;51.106;7.028;2023-07-09T07:12:26;5.07;;;4.68;;
18336;SDS011;9294;51.106;7.028;2023-07-09T07:14:53;4.63;;;4.32;;
18336;SDS011;9294;51.106;7.028;2023-07-09T07:17:20;5.50;;;4.85;;
18336;SDS011;9294;51.106;7.028;2023-07-09T07:19:49;5.10;;;4.50;;
18336;SDS011;9294;51.106;7.028;2023-07-09T07:22:16;4.38;;;4.18;;
18336;SDS011;9294;51.106;7.028;2023-07-09T07:24:44;5.18;;;4.80;;
18336;SDS011;9294;51.106;7.028;2023-07-09T07:27:11;5.07;;;4.78;;
18336;SDS011;9294;51.106;7.028;2023-07-09T07:29:38;5.53;;;5.13;;
18336;SDS011;9294;51.106;7.028;2023-07-09T07:32:06;5.85;;;4.75;;
18336;SDS011;9294;51.106;7.028;2023-07-09T07:34:33;5.90;;;5.25;;
18336;SDS011;9294;51.106;7.028;2023-07-09T07:37:01;5.32;;;4.82;;
18336;SDS011;9294;51.106;7.028;2023-07-09T07:39:28;12.40;;;5.10;;
18336;SDS011;9294;51.106;7.028;2023-07-09T07:41:56;6.75;;;5.15;;
18336;SDS011;9294;51.106;7.028;2023-07-09T07:44:23;6.07;;;4.88;;
18336;SDS011;9294;51.106;7.028;2023-07-09T07:46:51;5.57;;;5.20;;
18336;SDS011;9294;51.106;7.028;2023-07-09T07:49:18;5.47;;;4.97;;
18336;SDS011;9294;51.106;7.028;2023-07-09T07:51:45;5.15;;;4.70;;
18336;SDS011;9294;51.106;7.028;2023-07-09T07:54:13;5.63;;;4.75;;
18336;SDS011;9294;51.106;7.028;2023-07-09T07:56:40;5.68;;;5.18;;
18336;SDS011;9294;51.106;7.028;2023-07-09T07:59:09;5.68;;;4.65;;
18336;SDS011;9294;51.106;7.028;2023-07-09T08:01:36;6.20;;;5.30;;
18336;SDS011;9294;51.106;7.028;2023-07-09T08:04:03;5.80;;;5.35;;
18336;SDS011;9294;51.106;7.028;2023-07-09T08:06:30;5.72;;;5.22;;
18336;SDS011;9294;51.106;7.028;2023-07-09T08:08:57;5.65;;;5.22;;
18336;SDS011;9294;51.106;7.028;2023-07-09T08:11:24;5.05;;;4.75;;
18336;SDS011;9294;51.106;7.028;2023-07-09T08:13:53;5.60;;;5.20;;
18336;SDS011;9294;51.106;7.028;2023-07-09T08:16:21;5.07;;;4.72;;
18336;SDS011;9294;51.106;7.028;2023-07-09T08:18:49;5.82;;;5.43;;
18336;SDS011;9294;51.106;7.028;2023-07-09T08:21:17;5.32;;;4.82;;
18336;SDS011;9294;51.106;7.028;2023-07-09T08:23:44;5.22;;;4.50;;
18336;SDS011;9294;51.106;7.028;2023-07-09T08:26:12;5.68;;;5.10;;
18336;SDS011;9294;51.106;7.028;2023-07-09T08:28:40;5.57;;;5.07;;
18336;SDS011;9294;51.106;7.028;2023-07-09T08:31:07;5.75;;;5.35;;
18336;SDS011;9294;51.106;7.028;2023-07-09T08:33:36;5.53;;;5.13;;
18336;SDS011;9294;51.106;7.028;2023-07-09T08:36:04;4.72;;;4.43;;
18336;SDS011;9294;51.106;7.028;2023-07-09T08:38:31;4.70;;;4.30;;
18336;SDS011;9294;51.106;7.028;2023-07-09T08:41:00;5.30;;;4.95;;
18336;SDS011;9294;51.106;7.028;2023-07-09T08:43:32;4.63;;;4.28;;
18336;SDS011;9294;51.106;7.028;2023-07-09T08:46:07;6.95;;;5.10;;
18336;SDS011;9294;51.106;7.028;2023-07-09T08:48:36;5.30;;;4.82;;
18336;SDS011;9294;51.106;7.028;2023-07-09T08:51:04;5.22;;;4.88;;
18336;SDS011;9294;51.106;7.028;2023-07-09T08:53:36;4.13;;;3.85;;
18336;SDS011;9294;51.106;7.028;2023-07-09T08:56:03;4.95;;;4.65;;
18336;SDS011;9294;51.106;7.028;2023-07-09T08:58:31;5.07;;;4.68;;
18336;SDS011;9294;51.106;7.028;2023-07-09T09:00:59;5.68;;;5.18;;
18336;SDS011;9294;51.106;7.028;2023-07-09T09:03:29;5.45;;;4.82;;
18336;SDS011;9294;51.106;7.028;2023-07-09T09:06:00;4.88;;;4.57;;
18336;SDS011;9294;51.106;7.028;2023-07-09T09:08:31;5.25;;;4.90;;
18336;SDS011;9294;51.106;7.028;2023-07-09T09:11:03;5.65;;;5.10;;
18336;SDS011;9294;51.106;7.028;2023-07-09T09:13:33;4.72;;;4.32;;
18336;SDS011;9294;51.106;7.028;2023-07-09T09:16:04;5.05;;;4.68;;
18336;SDS011;9294;51.106;7.028;2023-07-09T09:18:34;5.65;;;4.72;;
18336;SDS011;9294;51.106;7.028;2023-07-09T09:21:07;4.93;;;4.55;;
18336;SDS011;9294;51.106;7.028;2023-07-09T09:23:38;4.30;;;4.00;;
18336;SDS011;9294;51.106;7.028;2023-07-09T09:26:06;4.78;;;4.32;;
18336;SDS011;9294;51.106;7.028;2023-07-09T09:28:36;4.82;;;4.53;;
18336;SDS011;9294;51.106;7.028;2023-07-09T09:31:03;4.85;;;4.45;;
18336;SDS011;9294;51.106;7.028;2023-07-09T09:33:36;4.22;;;4.03;;
18336;SDS011;9294;51.106;7.028;2023-07-09T09:36:03;4.45;;;4.15;;
18336;SDS011;9294;51.106;7.028;2023-07-09T09:38:35;4.78;;;4.45;;
18336;SDS011;9294;51.106;7.028;2023-07-09T09:41:02;4.90;;;4.55;;
18336;SDS011;9294;51.106;7.028;2023-07-09T09:43:32;4.85;;;4.43;;
18336;SDS011;9294;51.106;7.028;2023-07-09T09:45:59;5.53;;;4.00;;
18336;SDS011;9294;51.106;7.028;2023-07-09T09:48:28;5.15;;;4.40;;
18336;SDS011;9294;51.106;7.028;2023-07-09T09:50:55;5.82;;;5.03;;
18336;SDS011;9294;51.106;7.028;2023-07-09T09:53:26;8.10;;;4.95;;
18336;SDS011;9294;51.106;7.028;2023-07-09T09:55:56;5.80;;;4.93;;
18336;SDS011;9294;51.106;7.028;2023-07-09T09:58:25;4.75;;;4.32;;
18336;SDS011;9294;51.106;7.028;2023-07-09T10:00:55;5.22;;;4.82;;
18336;SDS011;9294;51.106;7.028;2023-07-09T10:03:32;4.95;;;4.55;;
18336;SDS011;9294;51.106;7.028;2023-07-09T10:06:00;5.88;;;5.47;;
18336;SDS011;9294;51.106;7.028;2023-07-09T10:08:32;5.40;;;4.90;;
18336;SDS011;9294;51.106;7.028;2023-07-09T10:11:08;5.03;;;4.63;;
18336;SDS011;9294;51.106;7.028;2023-07-09T10:13:39;4.80;;;4.30;;
18336;SDS011;9294;51.106;7.028;2023-07-09T10:16:07;5.15;;;4.75;;
18336;SDS011;9294;51.106;7.028;2023-07-09T10:18:44;5.15;;;4.70;;
18336;SDS011;9294;51.106;7.028;2023-07-09T10:21:15;6.72;;;5.07;;
18336;SDS011;9294;51.106;7.028;2023-07-09T10:23:47;5.50;;;5.15;;
18336;SDS011;9294;51.106;7.028;2023-07-09T10:26:18;5.95;;;5.28;;
18336;SDS011;9294;51.106;7.028;2023-07-09T10:29:01;5.20;;;4.80;;
18336;SDS011;9294;51.106;7.028;2023-07-09T10:31:35;5.70;;;5.20;;
18336;SDS011;9294;51.106;7.028;2023-07-09T10:34:05;6.07;;;5.50;;
18336;SDS011;9294;51.106;7.028;2023-07-09T10:36:39;5.28;;;4.88;;
18336;SDS011;9294;51.106;7.028;2023-07-09T10:39:10;5.00;;;4.70;;
18336;SDS011;9294;51.106;7.028;2023-07-09T10:41:40;5.65;;;5.13;;
18336;SDS011;9294;51.106;7.028;2023-07-09T10:44:09;5.70;;;5.20;;
18336;SDS011;9294;51.106;7.028;2023-07-09T10:46:38;5.50;;;4.93;;
18336;SDS011;9294;51.106;7.028;2023-07-09T10:49:07;5.40;;;5.00;;
18336;SDS011;9294;51.106;7.028;2023-07-09T10:51:37;5.82;;;5.32;;
18336;SDS011;9294;51.106;7.028;2023-07-09T10:54:06;6.50;;;5.38;;
18336;SDS011;9294;51.106;7.028;2023-07-09T10:56:37;5.05;;;4.65;;
18336;SDS011;9294;51.106;7.028;2023-07-09T10:59:19;5.90;;;5.15;;
18336;SDS011;9294;51.106;7.028;2023-07-09T11:01:47;5.15;;;4.65;;
18336;SDS011;9294;51.106;7.028;2023-07-09T11:04:18;6.10;;;4.80;;
18336;SDS011;9294;51.106;7.028;2023-07-09T11:06:48;5.45;;;4.97;;
18336;SDS011;9294;51.106;7.028;2023-07-09T11:09:18;5.40;;;5.00;;
18336;SDS011;9294;51.106;7.028;2023-07-09T11:11:47;5.72;;;5.25;;
18336;SDS011;9294;51.106;7.028;2023-07-09T11:14:21;5.43;;;4.70;;
18336;SDS011;9294;51.106;7.028;2023-07-09T11:16:51;5.90;;;5.25;;
18336;SDS011;9294;51.106;7.028;2023-07-09T11:19:19;11.20;;;5.72;;
18336;SDS011;9294;51.106;7.028;2023-07-09T11:21:56;5.30;;;4.40;;
18336;SDS011;9294;51.106;7.028;2023-07-09T11:24:29;5.78;;;4.65;;
18336;SDS011;9294;51.106;7.028;2023-07-09T11:26:56;4.95;;;4.57;;
18336;SDS011;9294;51.106;7.028;2023-07-09T11:29:26;4.80;;;4.40;;
18336;SDS011;9294;51.106;7.028;2023-07-09T11:31:54;6.03;;;5.30;;
18336;SDS011;9294;51.106;7.028;2023-07-09T11:34:26;7.25;;;4.80;;
18336;SDS011;9294;51.106;7.028;2023-07-09T11:36:56;4.97;;;4.53;;
18336;SDS011;9294;51.106;7.028;2023-07-09T11:39:27;5.10;;;4.70;;
18336;SDS011;9294;51.106;7.028;2023-07-09T11:41:55;4.90;;;4.50;;
18336;SDS011;9294;51.106;7.028;2023-07-09T11:44:23;4.22;;;3.92;;
18336;SDS011;9294;51.106;7.028;2023-07-09T11:46:55;5.07;;;4.68;;
18336;SDS011;9294;51.106;7.028;2023-07-09T11:49:25;5.50;;;5.03;;
18336;SDS011;9294;51.106;7.028;2023-07-09T11:51:54;4.90;;;4.47;;
18336;SDS011;9294;51.106;7.028;2023-07-09T11:54:21;4.68;;;4.35;;
18336;SDS011;9294;51.106;7.028;2023-07-09T11:56:55;5.65;;;4.82;;
18336;SDS011;9294;51.106;7.028;2023-07-09T11:59:23;5.30;;;4.82;;
18336;SDS011;9294;51.106;7.028;2023-07-09T12:01:50;5.15;;;4.72;;
18336;SDS011;9294;51.106;7.028;2023-07-09T12:04:21;5.88;;;5.38;;
18336;SDS011;9294;51.106;7.028;2023-07-09T12:06:48;4.65;;;4.35;;
18336;SDS011;9294;51.106;7.028;2023-07-09T12:09:18;5.38;;;4.97;;
18336;SDS011;9294;51.106;7.028;2023-07-09T12:11:46;5.53;;;5.03;;
18336;SDS011;9294;51.106;7.028;2023-07-09T12:14:16;5.47;;;4.97;;
18336;SDS011;9294;51.106;7.028;2023-07-09T12:16:44;4.78;;;4.38;;
18336;SDS011;9294;51.106;7.028;2023-07-09T12:19:12;6.57;;;4.45;;
18336;SDS011;9294;51.106;7.028;2023-07-09T12:21:42;5.13;;;4.72;;
18336;SDS011;9294;51.106;7.028;2023-07-09T12:24:15;6.45;;;5.00;;
18336;SDS011;9294;51.106;7.028;2023-07-09T12:26:46;4.93;;;4.53;;
18336;SDS011;9294;51.106;7.028;2023-07-09T12:29:14;6.20;;;5.13;;
18336;SDS011;9294;51.106;7.028;2023-07-09T12:31:41;5.15;;;4.75;;
18336;SDS011;9294;51.106;7.028;2023-07-09T12:34:10;5.85;;;5.35;;
18336;SDS011;9294;51.106;7.028;2023-07-09T12:36:38;4.80;;;4.50;;
18336;SDS011;9294;51.106;7.028;2023-07-09T12:39:09;5.00;;;4.70;;
18336;SDS011;9294;51.106;7.028;2023-07-09T12:41:38;5.60;;;5.10;;
18336;SDS011;9294;51.106;7.028;2023-07-09T12:44:08;5.60;;;5.10;;
18336;SDS011;9294;51.106;7.028;2023-07-09T12:46:38;5.68;;;5.28;;
18336;SDS011;9294;51.106;7.028;2023-07-09T12:49:06;4.82;;;4.53;;
18336;SDS011;9294;51.106;7.028;2023-07-09T12:51:33;4.90;;;4.50;;
18336;SDS011;9294;51.106;7.028;2023-07-09T12:54:00;5.88;;;5.35;;
18336;SDS011;9294;51.106;7.028;2023-07-09T12:56:30;5.18;;;4.68;;
18336;SDS011;9294;51.106;7.028;2023-07-09T12:58:59;5.68;;;4.82;;
18336;SDS011;9294;51.106;7.028;2023-07-09T13:01:28;5.80;;;5.35;;
18336;SDS011;9294;51.106;7.028;2023-07-09T13:04:00;4.95;;;4.65;;
18336;SDS011;9294;51.106;7.028;2023-07-09T13:06:28;5.65;;;5.15;;
18336;SDS011;9294;51.106;7.028;2023-07-09T13:08:56;5.72;;;5.10;;
18336;SDS011;9294;51.106;7.028;2023-07-09T13:11:24;5.30;;;4.90;;
18336;SDS011;9294;51.106;7.028;2023-07-09T13:13:56;5.50;;;5.00;;
18336;SDS011;9294;51.106;7.028;2023-07-09T13:16:24;5.68;;;5.18;;
18336;SDS011;9294;51.106;7.028;2023-07-09T13:18:51;5.57;;;5.18;;
18336;SDS011;9294;51.106;7.028;2023-07-09T13:21:19;5.43;;;5.03;;
18336;SDS011;9294;51.106;7.028;2023-07-09T13:23:46;5.85;;;5.45;;
18336;SDS011;9294;51.106;7.028;2023-07-09T13:26:14;5.47;;;4.97;;
18336;SDS011;9294;51.106;7.028;2023-07-09T13:28:42;5.68;;;5.28;;
18336;SDS011;9294;51.106;7.028;2023-07-09T13:31:13;5.00;;;4.70;;
18336;SDS011;9294;51.106;7.028;2023-07-09T13:33:40;5.43;;;4.95;;
18336;SDS011;9294;51.106;7.028;2023-07-09T13:36:07;5.55;;;5.15;;
18336;SDS011;9294;51.106;7.028;2023-07-09T13:38:35;5.07;;;4.68;;
18336;SDS011;9294;51.106;7.028;2023-07-09T13:41:09;5.72;;;5.22;;
18336;SDS011;9294;51.106;7.028;2023-07-09T13:43:37;5.45;;;4.95;;
18336;SDS011;9294;51.106;7.028;2023-07-09T13:46:06;5.18;;;4.80;;
18336;SDS011;9294;51.106;7.028;2023-07-09T13:48:36;5.47;;;5.07;;
18336;SDS011;9294;51.106;7.028;2023-07-09T13:51:06;5.93;;;5.43;;
18336;SDS011;9294;51.106;7.028;2023-07-09T13:53:40;5.53;;;5.05;;
18336;SDS011;9294;51.106;7.028;2023-07-09T13:56:07;5.22;;;4.82;;
18336;SDS011;9294;51.106;7.028;2023-07-09T13:58:34;6.45;;;5.05;;
18336;SDS011;9294;51.106;7.028;2023-07-09T14:01:18;5.90;;;4.93;;
18336;SDS011;9294;51.106;7.028;2023-07-09T14:03:48;5.13;;;4.80;;
18336;SDS011;9294;51.106;7.028;2023-07-09T14:06:16;5.57;;;5.18;;
18336;SDS011;9294;51.106;7.028;2023-07-09T14:08:43;4.88;;;4.47;;
18336;SDS011;9294;51.106;7.028;2023-07-09T14:11:10;7.20;;;5.40;;
18336;SDS011;9294;51.106;7.028;2023-07-09T14:13:38;5.72;;;5.25;;
18336;SDS011;9294;51.106;7.028;2023-07-09T14:16:05;5.80;;;5.40;;
18336;SDS011;9294;51.106;7.028;2023-07-09T14:18:32;5.68;;;5.25;;
18336;SDS011;9294;51.106;7.028;2023-07-09T14:21:02;5.70;;;5.22;;
18336;SDS011;9294;51.106;7.028;2023-07-09T14:23:30;5.68;;;5.15;;
18336;SDS011;9294;51.106;7.028;2023-07-09T14:25:57;5.53;;;5.00;;
18336;SDS011;9294;51.106;7.028;2023-07-09T14:28:24;5.78;;;5.38;;
18336;SDS011;9294;51.106;7.028;2023-07-09T14:30:51;5.90;;;5.40;;
18336;SDS011;9294;51.106;7.028;2023-07-09T14:33:19;5.00;;;4.70;;
18336;SDS011;9294;51.106;7.028;2023-07-09T14:35:47;7.55;;;5.90;;
18336;SDS011;9294;51.106;7.028;2023-07-09T14:38:17;6.20;;;5.60;;
18336;SDS011;9294;51.106;7.028;2023-07-09T14:40:45;5.75;;;5.25;;
18336;SDS011;9294;51.106;7.028;2023-07-09T14:43:13;5.95;;;5.55;;
18336;SDS011;9294;51.106;7.028;2023-07-09T14:45:40;5.40;;;4.90;;
18336;SDS011;9294;51.106;7.028;2023-07-09T14:48:10;5.13;;;4.72;;
18336;SDS011;9294;51.106;7.028;2023-07-09T14:50:38;5.60;;;5.10;;
18336;SDS011;9294;51.106;7.028;2023-07-09T14:53:10;6.07;;;5.45;;
18336;SDS011;9294;51.106;7.028;2023-07-09T14:55:39;6.18;;;5.57;;
18336;SDS011;9294;51.106;7.028;2023-07-09T14:58:10;9.20;;;6.15;;
18336;SDS011;9294;51.106;7.028;2023-07-09T15:00:38;5.43;;;4.90;;
18336;SDS011;9294;51.106;7.028;2023-07-09T15:03:07;5.35;;;4.95;;
18336;SDS011;9294;51.106;7.028;2023-07-09T15:05:35;9.68;;;5.05;;
18336;SDS011;9294;51.106;7.028;2023-07-09T15:08:06;6.30;;;5.70;;